sensor_id;sensor_type;location;lat;lon;timestamp;pressure;altitude;pressure_sealevel;temperature;humidity
70206;BME280;57593;55.896;37.396;2023-02-28T00:00:05;99857.66;;;-7.24;100.00
70206;BME280;57593;55.896;37.396;2023-02-28T00:00:40;99852.09;;;-7.07;100.00
70206;BME280;57593;55.896;37.396;2023-02-28T00:01:12;99857.47;;;-7.22;100.00
70206;BME280;57593;55.896;37.396;2023-02-28T00:01:43;99849.75;;;-7.15;100.00
70206;BME280;57593;55.896;37.396;2023-02-28T00:02:14;99852.50;;;-7.03;100.00
70206;BME280;57593;55.896;37.396;2023-02-28T00:02:45;99859.03;;;-7.14;100.00
70206;BME280;57593;55.896;37.396;2023-02-28T00:03:16;99861.81;;;-7.29;100.00
70206;BME280;57593;55.896;37.396;2023-02-28T00:03:47;99855.50;;;-7.33;100.00
70206;BME280;57593;55.896;37.396;2023-02-28T00:04:17;99852.16;;;-7.27;100.00
70206;BME280;57593;55.896;37.396;2023-02-28T00:04:48;99859.84;;;-7.41;100.00
70206;BME280;57593;55.896;37.396;2023-02-28T00:05:25;99853.53;;;-7.31;100.00
70206;BME280;57593;55.896;37.396;2023-02-28T00:05:56;99848.22;;;-7.36;100.00
70206;BME280;57593;55.896;37.396;2023-02-28T00:06:27;99847.63;;;-7.45;100.00
70206;BME280;57593;55.896;37.396;2023-02-28T00:06:57;99859.69;;;-7.52;100.00
70206;BME280;57593;55.896;37.396;2023-02-28T00:07:29;99853.72;;;-7.33;100.00
70206;BME280;57593;55.896;37.396;2023-02-28T00:08:00;99853.50;;;-7.25;100.00
70206;BME280;57593;55.896;37.396;2023-02-28T00:08:31;99847.78;;;-7.20;100.00
70206;BME280;57593;55.896;37.396;2023-02-28T00:09:02;99849.16;;;-7.17;100.00
70206;BME280;57593;55.896;37.396;2023-02-28T00:09:32;99848.19;;;-7.16;100.00
70206;BME280;57593;55.896;37.396;2023-02-28T00:10:05;99847.41;;;-7.24;100.00
70206;BME280;57593;55.896;37.396;2023-02-28T00:10:39;99847.56;;;-7.05;100.00
70206;BME280;57593;55.896;37.396;2023-02-28T00:11:11;99853.25;;;-6.90;100.00
70206;BME280;57593;55.896;37.396;2023-02-28T00:11:42;99849.53;;;-7.00;100.00
70206;BME280;57593;55.896;37.396;2023-02-28T00:12:13;99842.25;;;-7.10;100.00
70206;BME280;57593;55.896;37.396;2023-02-28T00:12:45;99842.78;;;-6.95;100.00
70206;BME280;57593;55.896;37.396;2023-02-28T00:13:15;99846.72;;;-6.85;100.00
70206;BME280;57593;55.896;37.396;2023-02-28T00:13:47;99842.38;;;-6.85;100.00
70206;BME280;57593;55.896;37.396;2023-02-28T00:14:18;99837.41;;;-6.80;100.00
70206;BME280;57593;55.896;37.396;2023-02-28T00:14:49;99838.81;;;-6.91;100.00
70206;BME280;57593;55.896;37.396;2023-02-28T00:15:20;99846.38;;;-7.02;100.00
70206;BME280;57593;55.896;37.396;2023-02-28T00:16:02;99836.53;;;-7.19;100.00
70206;BME280;57593;55.896;37.396;2023-02-28T00:16:33;99832.78;;;-7.23;100.00
70206;BME280;57593;55.896;37.396;2023-02-28T00:17:05;99843.22;;;-7.11;100.00
70206;BME280;57593;55.896;37.396;2023-02-28T00:17:36;99836.31;;;-7.17;100.00
70206;BME280;57593;55.896;37.396;2023-02-28T00:18:06;99835.56;;;-7.31;100.00
70206;BME280;57593;55.896;37.396;2023-02-28T00:18:37;99836.78;;;-7.54;100.00
70206;BME280;57593;55.896;37.396;2023-02-28T00:19:08;99842.91;;;-7.55;100.00
70206;BME280;57593;55.896;37.396;2023-02-28T00:19:38;99843.91;;;-7.49;100.00
70206;BME280;57593;55.896;37.396;2023-02-28T00:20:10;99850.81;;;-7.63;100.00
70206;BME280;57593;55.896;37.396;2023-02-28T00:20:42;99838.94;;;-7.57;100.00
70206;BME280;57593;55.896;37.396;2023-02-28T00:21:13;99843.50;;;-7.46;100.00
70206;BME280;57593;55.896;37.396;2023-02-28T00:21:43;99839.75;;;-7.57;100.00
70206;BME280;57593;55.896;37.396;2023-02-28T00:22:16;99827.91;;;-7.45;100.00
70206;BME280;57593;55.896;37.396;2023-02-28T00:22:50;99833.22;;;-7.46;100.00
70206;BME280;57593;55.896;37.396;2023-02-28T00:23:21;99837.34;;;-7.32;100.00
70206;BME280;57593;55.896;37.396;2023-02-28T00:23:52;99839.13;;;-7.26;100.00
70206;BME280;57593;55.896;37.396;2023-02-28T00:24:23;99846.84;;;-7.46;100.00
70206;BME280;57593;55.896;37.396;2023-02-28T00:24:53;99841.50;;;-7.37;100.00
70206;BME280;57593;55.896;37.396;2023-02-28T00:25:25;99840.72;;;-7.51;100.00
70206;BME280;57593;55.896;37.396;2023-02-28T00:25:56;99834.00;;;-7.39;100.00
70206;BME280;57593;55.896;37.396;2023-02-28T00:26:26;99829.66;;;-7.32;100.00
70206;BME280;57593;55.896;37.396;2023-02-28T00:26:57;99835.19;;;-7.35;100.00
70206;BME280;57593;55.896;37.396;2023-02-28T00:27:28;99829.47;;;-7.50;100.00
70206;BME280;57593;55.896;37.396;2023-02-28T00:27:58;99840.31;;;-7.35;100.00
70206;BME280;57593;55.896;37.396;2023-02-28T00:28:29;99835.78;;;-7.39;100.00
70206;BME280;57593;55.896;37.396;2023-02-28T00:29:03;99834.00;;;-7.46;100.00
70206;BME280;57593;55.896;37.396;2023-02-28T00:29:33;99829.66;;;-7.32;100.00
70206;BME280;57593;55.896;37.396;2023-02-28T00:30:07;99824.66;;;-7.07;100.00
70206;BME280;57593;55.896;37.396;2023-02-28T00:30:38;99830.19;;;-7.10;100.00
70206;BME280;57593;55.896;37.396;2023-02-28T00:31:09;99825.44;;;-7.06;100.00
70206;BME280;57593;55.896;37.396;2023-02-28T00:31:39;99834.53;;;-7.17;100.00
70206;BME280;57593;55.896;37.396;2023-02-28T00:32:10;99827.44;;;-7.15;100.00
70206;BME280;57593;55.896;37.396;2023-02-28T00:32:42;99823.88;;;-7.07;100.00
70206;BME280;57593;55.896;37.396;2023-02-28T00:33:13;99830.72;;;-6.94;100.00
70206;BME280;57593;55.896;37.396;2023-02-28T00:33:44;99824.06;;;-7.15;100.00
70206;BME280;57593;55.896;37.396;2023-02-28T00:34:14;99826.66;;;-7.22;100.00
70206;BME280;57593;55.896;37.396;2023-02-28T00:34:45;99837.50;;;-7.20;100.00
70206;BME280;57593;55.896;37.396;2023-02-28T00:35:16;99820.97;;;-7.37;100.00
70206;BME280;57593;55.896;37.396;2023-02-28T00:35:46;99830.06;;;-7.35;100.00
70206;BME280;57593;55.896;37.396;2023-02-28T00:36:18;99835.59;;;-7.51;100.00
70206;BME280;57593;55.896;37.396;2023-02-28T00:36:49;99822.34;;;-7.35;100.00
70206;BME280;57593;55.896;37.396;2023-02-28T00:37:19;99817.78;;;-7.19;100.00
70206;BME280;57593;55.896;37.396;2023-02-28T00:37:50;99824.34;;;-7.57;100.00
70206;BME280;57593;55.896;37.396;2023-02-28T00:38:21;99825.16;;;-7.63;100.00
70206;BME280;57593;55.896;37.396;2023-02-28T00:38:52;99831.66;;;-7.47;100.00
70206;BME280;57593;55.896;37.396;2023-02-28T00:39:23;99829.84;;;-7.33;100.00
70206;BME280;57593;55.896;37.396;2023-02-28T00:39:53;99820.38;;;-7.39;100.00
70206;BME280;57593;55.896;37.396;2023-02-28T00:40:26;99826.88;;;-7.30;100.00
70206;BME280;57593;55.896;37.396;2023-02-28T00:40:57;99815.63;;;-7.23;100.00
70206;BME280;57593;55.896;37.396;2023-02-28T00:41:29;99820.75;;;-7.23;100.00
70206;BME280;57593;55.896;37.396;2023-02-28T00:41:59;99826.28;;;-7.32;100.00
70206;BME280;57593;55.896;37.396;2023-02-28T00:42:30;99825.84;;;-7.16;100.00
70206;BME280;57593;55.896;37.396;2023-02-28T00:43:01;99818.72;;;-7.14;100.00
70206;BME280;57593;55.896;37.396;2023-02-28T00:43:36;99809.69;;;-7.16;100.00
70206;BME280;57593;55.896;37.396;2023-02-28T00:44:07;99812.47;;;-7.31;100.00
70206;BME280;57593;55.896;37.396;2023-02-28T00:44:38;99804.75;;;-7.25;100.00
70206;BME280;57593;55.896;37.396;2023-02-28T00:45:09;99807.50;;;-7.19;100.00
70206;BME280;57593;55.896;37.396;2023-02-28T00:45:42;99810.66;;;-7.17;100.00
70206;BME280;57593;55.896;37.396;2023-02-28T00:46:12;99802.34;;;-7.13;100.00
70206;BME280;57593;55.896;37.396;2023-02-28T00:46:43;99806.69;;;-7.07;100.00
70206;BME280;57593;55.896;37.396;2023-02-28T00:47:14;99806.88;;;-7.08;100.00
70206;BME280;57593;55.896;37.396;2023-02-28T00:47:44;99805.69;;;-7.06;100.00
70206;BME280;57593;55.896;37.396;2023-02-28T00:48:16;99807.69;;;-7.14;100.00
70206;BME280;57593;55.896;37.396;2023-02-28T00:48:47;99802.03;;;-7.43;100.00
70206;BME280;57593;55.896;37.396;2023-02-28T00:49:18;99801.22;;;-7.44;100.00
70206;BME280;57593;55.896;37.396;2023-02-28T00:49:49;99801.25;;;-7.50;100.00
70206;BME280;57593;55.896;37.396;2023-02-28T00:50:20;99799.66;;;-7.38;100.00
70206;BME280;57593;55.896;37.396;2023-02-28T00:50:51;99805.81;;;-7.52;100.00
70206;BME280;57593;55.896;37.396;2023-02-28T00:51:21;99804.63;;;-7.70;100.00
70206;BME280;57593;55.896;37.396;2023-02-28T00:51:53;99798.09;;;-7.52;100.00
70206;BME280;57593;55.896;37.396;2023-02-28T00:52:24;99792.16;;;-7.53;100.00
70206;BME280;57593;55.896;37.396;2023-02-28T00:52:55;99799.31;;;-7.62;100.00
70206;BME280;57593;55.896;37.396;2023-02-28T00:53:25;99809.75;;;-7.56;100.00
70206;BME280;57593;55.896;37.396;2023-02-28T00:53:56;99801.47;;;-7.59;100.00
70206;BME280;57593;55.896;37.396;2023-02-28T00:54:28;99801.06;;;-7.55;100.00
70206;BME280;57593;55.896;37.396;2023-02-28T00:54:58;99802.22;;;-7.51;100.00
70206;BME280;57593;55.896;37.396;2023-02-28T00:55:29;99815.66;;;-7.76;100.00
70206;BME280;57593;55.896;37.396;2023-02-28T00:56:00;99797.94;;;-7.71;100.00
70206;BME280;57593;55.896;37.396;2023-02-28T00:56:31;99795.75;;;-7.54;100.00
70206;BME280;57593;55.896;37.396;2023-02-28T00:57:01;99791.78;;;-7.50;100.00
70206;BME280;57593;55.896;37.396;2023-02-28T00:57:32;99787.44;;;-7.56;100.00
70206;BME280;57593;55.896;37.396;2023-02-28T00:58:03;99794.38;;;-7.83;100.00
70206;BME280;57593;55.896;37.396;2023-02-28T00:58:33;99799.50;;;-7.70;100.00
70206;BME280;57593;55.896;37.396;2023-02-28T00:59:04;99799.28;;;-7.68;100.00
70206;BME280;57593;55.896;37.396;2023-02-28T00:59:35;99794.75;;;-7.60;100.00
70206;BME280;57593;55.896;37.396;2023-02-28T01:00:06;99784.47;;;-7.53;100.00
70206;BME280;57593;55.896;37.396;2023-02-28T01:00:37;99791.59;;;-7.62;100.00
70206;BME280;57593;55.896;37.396;2023-02-28T01:01:08;99777.38;;;-7.57;100.00
70206;BME280;57593;55.896;37.396;2023-02-28T01:01:39;99779.56;;;-7.61;100.00
70206;BME280;57593;55.896;37.396;2023-02-28T01:02:10;99778.19;;;-7.70;100.00
70206;BME280;57593;55.896;37.396;2023-02-28T01:02:41;99770.69;;;-7.72;100.00
70206;BME280;57593;55.896;37.396;2023-02-28T01:03:12;99766.75;;;-7.74;100.00
70206;BME280;57593;55.896;37.396;2023-02-28T01:03:42;99760.81;;;-7.68;100.00
70206;BME280;57593;55.896;37.396;2023-02-28T01:04:14;99768.31;;;-7.60;100.00
70206;BME280;57593;55.896;37.396;2023-02-28T01:04:44;99767.13;;;-7.57;100.00
70206;BME280;57593;55.896;37.396;2023-02-28T01:05:15;99767.72;;;-7.62;100.00
70206;BME280;57593;55.896;37.396;2023-02-28T01:05:46;99759.22;;;-7.56;100.00
70206;BME280;57593;55.896;37.396;2023-02-28T01:06:17;99764.97;;;-7.54;100.00
70206;BME280;57593;55.896;37.396;2023-02-28T01:06:48;99767.91;;;-7.64;100.00
70206;BME280;57593;55.896;37.396;2023-02-28T01:07:18;99764.75;;;-7.59;100.00
70206;BME280;57593;55.896;37.396;2023-02-28T01:07:50;99771.03;;;-7.48;100.00
70206;BME280;57593;55.896;37.396;2023-02-28T01:08:21;99761.59;;;-7.54;100.00
70206;BME280;57593;55.896;37.396;2023-02-28T01:08:52;99774.00;;;-7.51;100.00
70206;BME280;57593;55.896;37.396;2023-02-28T01:09:22;99762.59;;;-7.55;100.00
70206;BME280;57593;55.896;37.396;2023-02-28T01:09:54;99763.78;;;-7.65;100.00
70206;BME280;57593;55.896;37.396;2023-02-28T01:10:25;99765.75;;;-7.53;100.00
70206;BME280;57593;55.896;37.396;2023-02-28T01:11:09;99765.34;;;-7.57;100.00
70206;BME280;57593;55.896;37.396;2023-02-28T01:11:41;99759.41;;;-7.57;100.00
70206;BME280;57593;55.896;37.396;2023-02-28T01:12:14;99763.78;;;-7.58;100.00
70206;BME280;57593;55.896;37.396;2023-02-28T01:12:45;99760.81;;;-7.55;100.00
70206;BME280;57593;55.896;37.396;2023-02-28T01:13:16;99756.50;;;-7.68;100.00
70206;BME280;57593;55.896;37.396;2023-02-28T01:13:47;99758.81;;;-7.53;100.00
70206;BME280;57593;55.896;37.396;2023-02-28T01:14:17;99756.25;;;-7.46;100.00
70206;BME280;57593;55.896;37.396;2023-02-28T01:14:49;99752.47;;;-7.44;100.00
70206;BME280;57593;55.896;37.396;2023-02-28T01:15:20;99750.53;;;-7.48;100.00
70206;BME280;57593;55.896;37.396;2023-02-28T01:15:54;99749.78;;;-7.55;100.00
70206;BME280;57593;55.896;37.396;2023-02-28T01:16:26;99756.47;;;-7.54;100.00
70206;BME280;57593;55.896;37.396;2023-02-28T01:16:57;99764.59;;;-7.71;100.00
70206;BME280;57593;55.896;37.396;2023-02-28T01:17:29;99735.59;;;-7.78;100.00
70206;BME280;57593;55.896;37.396;2023-02-28T01:18:00;99736.56;;;-7.72;100.00
70206;BME280;57593;55.896;37.396;2023-02-28T01:18:30;99749.41;;;-7.72;100.00
70206;BME280;57593;55.896;37.396;2023-02-28T01:19:01;99744.06;;;-7.78;100.00
70206;BME280;57593;55.896;37.396;2023-02-28T01:19:32;99742.31;;;-7.77;100.00
70206;BME280;57593;55.896;37.396;2023-02-28T01:20:03;99746.25;;;-7.68;100.00
70206;BME280;57593;55.896;37.396;2023-02-28T01:20:36;99744.25;;;-7.52;100.00
70206;BME280;57593;55.896;37.396;2023-02-28T01:21:13;99744.38;;;-7.41;100.00
70206;BME280;57593;55.896;37.396;2023-02-28T01:21:44;99731.81;;;-7.55;100.00
70206;BME280;57593;55.896;37.396;2023-02-28T01:22:16;99732.19;;;-7.52;100.00
70206;BME280;57593;55.896;37.396;2023-02-28T01:22:47;99718.56;;;-7.46;100.00
70206;BME280;57593;55.896;37.396;2023-02-28T01:23:20;99722.66;;;-7.38;100.00
70206;BME280;57593;55.896;37.396;2023-02-28T01:23:51;99716.34;;;-7.35;100.00
70206;BME280;57593;55.896;37.396;2023-02-28T01:24:22;99726.28;;;-7.52;100.00
70206;BME280;57593;55.896;37.396;2023-02-28T01:24:53;99727.44;;;-7.48;100.00
70206;BME280;57593;55.896;37.396;2023-02-28T01:25:24;99725.84;;;-7.43;100.00
70206;BME280;57593;55.896;37.396;2023-02-28T01:25:54;99728.59;;;-7.37;100.00
70206;BME280;57593;55.896;37.396;2023-02-28T01:26:25;99725.44;;;-7.39;100.00
70206;BME280;57593;55.896;37.396;2023-02-28T01:26:56;99718.13;;;-7.36;100.00
70206;BME280;57593;55.896;37.396;2023-02-28T01:27:26;99721.25;;;-7.27;100.00
70206;BME280;57593;55.896;37.396;2023-02-28T01:27:58;99716.31;;;-7.29;100.00
70206;BME280;57593;55.896;37.396;2023-02-28T01:28:31;99722.31;;;-7.42;100.00
70206;BME280;57593;55.896;37.396;2023-02-28T01:29:02;99716.53;;;-7.30;100.00
70206;BME280;57593;55.896;37.396;2023-02-28T01:29:33;99722.25;;;-7.28;100.00
70206;BME280;57593;55.896;37.396;2023-02-28T01:30:04;99720.66;;;-7.29;100.00
70206;BME280;57593;55.896;37.396;2023-02-28T01:30:35;99720.25;;;-7.26;100.00
70206;BME280;57593;55.896;37.396;2023-02-28T01:31:06;99712.22;;;-7.36;100.00
70206;BME280;57593;55.896;37.396;2023-02-28T01:31:37;99703.50;;;-7.35;100.00
70206;BME280;57593;55.896;37.396;2023-02-28T01:32:08;99700.94;;;-7.29;100.00
70206;BME280;57593;55.896;37.396;2023-02-28T01:32:39;99709.59;;;-7.30;100.00
70206;BME280;57593;55.896;37.396;2023-02-28T01:33:10;99698.16;;;-7.27;100.00
70206;BME280;57593;55.896;37.396;2023-02-28T01:33:41;99707.28;;;-7.38;100.00
70206;BME280;57593;55.896;37.396;2023-02-28T01:34:11;99705.06;;;-7.28;100.00
70206;BME280;57593;55.896;37.396;2023-02-28T01:34:42;99697.75;;;-7.31;100.00
70206;BME280;57593;55.896;37.396;2023-02-28T01:35:13;99705.28;;;-7.36;100.00
70206;BME280;57593;55.896;37.396;2023-02-28T01:35:44;99715.72;;;-7.24;100.00
70206;BME280;57593;55.896;37.396;2023-02-28T01:36:17;99710.78;;;-7.26;100.00
70206;BME280;57593;55.896;37.396;2023-02-28T01:36:49;99710.41;;;-7.36;100.00
70206;BME280;57593;55.896;37.396;2023-02-28T01:37:19;99710.19;;;-7.28;100.00
70206;BME280;57593;55.896;37.396;2023-02-28T01:37:50;99707.59;;;-7.21;100.00
70206;BME280;57593;55.896;37.396;2023-02-28T01:38:20;99709.56;;;-7.23;100.00
70206;BME280;57593;55.896;37.396;2023-02-28T01:38:51;99705.25;;;-7.29;100.00
70206;BME280;57593;55.896;37.396;2023-02-28T01:39:25;99705.03;;;-7.21;100.00
70206;BME280;57593;55.896;37.396;2023-02-28T01:39:56;99696.47;;;-7.08;100.00
70206;BME280;57593;55.896;37.396;2023-02-28T01:40:27;99694.91;;;-7.09;100.00
70206;BME280;57593;55.896;37.396;2023-02-28T01:40:58;99690.78;;;-7.17;100.00
70206;BME280;57593;55.896;37.396;2023-02-28T01:41:30;99693.56;;;-7.18;100.00
70206;BME280;57593;55.896;37.396;2023-02-28T01:42:01;99687.09;;;-7.28;100.00
70206;BME280;57593;55.896;37.396;2023-02-28T01:42:32;99693.97;;;-7.22;100.00
70206;BME280;57593;55.896;37.396;2023-02-28T01:43:02;99682.34;;;-7.24;100.00
70206;BME280;57593;55.896;37.396;2023-02-28T01:45:29;99689.28;;;-7.31;100.00
70206;BME280;57593;55.896;37.396;2023-02-28T01:46:00;99682.19;;;-7.36;100.00
70206;BME280;57593;55.896;37.396;2023-02-28T01:46:35;99687.91;;;-7.34;100.00
70206;BME280;57593;55.896;37.396;2023-02-28T01:47:06;99682.56;;;-7.26;100.00
70206;BME280;57593;55.896;37.396;2023-02-28T01:47:40;99691.19;;;-7.20;100.00
70206;BME280;57593;55.896;37.396;2023-02-28T01:48:12;99690.91;;;-7.44;100.00
70206;BME280;57593;55.896;37.396;2023-02-28T01:49:29;99674.13;;;-7.39;100.00
70206;BME280;57593;55.896;37.396;2023-02-28T01:50:01;99677.63;;;-7.34;100.00
70206;BME280;57593;55.896;37.396;2023-02-28T01:50:37;99681.44;;;-7.43;100.00
70206;BME280;57593;55.896;37.396;2023-02-28T01:51:13;99678.06;;;-7.44;100.00
70206;BME280;57593;55.896;37.396;2023-02-28T01:51:50;99682.25;;;-7.49;100.00
70206;BME280;57593;55.896;37.396;2023-02-28T01:52:22;99679.69;;;-7.49;100.00
70206;BME280;57593;55.896;37.396;2023-02-28T01:53:01;99680.06;;;-7.46;100.00
70206;BME280;57593;55.896;37.396;2023-02-28T01:53:41;99678.97;;;-7.25;100.00
70206;BME280;57593;55.896;37.396;2023-02-28T01:54:17;99675.66;;;-7.32;100.00
70206;BME280;57593;55.896;37.396;2023-02-28T01:54:52;99671.13;;;-7.30;100.00
70206;BME280;57593;55.896;37.396;2023-02-28T01:55:25;99672.91;;;-7.37;100.00
70206;BME280;57593;55.896;37.396;2023-02-28T01:56:04;99664.63;;;-7.39;100.00
70206;BME280;57593;55.896;37.396;2023-02-28T01:56:36;99667.56;;;-7.35;100.00
70206;BME280;57593;55.896;37.396;2023-02-28T01:57:15;99667.59;;;-7.42;100.00
70206;BME280;57593;55.896;37.396;2023-02-28T01:57:50;99661.09;;;-7.38;100.00
70206;BME280;57593;55.896;37.396;2023-02-28T01:58:22;99663.56;;;-7.25;100.00
70206;BME280;57593;55.896;37.396;2023-02-28T01:58:54;99662.22;;;-7.27;100.00
70206;BME280;57593;55.896;37.396;2023-02-28T01:59:41;99662.09;;;-7.46;100.00
70206;BME280;57593;55.896;37.396;2023-02-28T02:00:19;99662.06;;;-7.39;100.00
70206;BME280;57593;55.896;37.396;2023-02-28T02:00:51;99668.78;;;-7.38;100.00
70206;BME280;57593;55.896;37.396;2023-02-28T02:01:23;99669.19;;;-7.41;100.00
70206;BME280;57593;55.896;37.396;2023-02-28T02:01:57;99664.06;;;-7.41;100.00
70206;BME280;57593;55.896;37.396;2023-02-28T02:02:28;99673.72;;;-7.36;100.00
70206;BME280;57593;55.896;37.396;2023-02-28T02:03:04;99670.69;;;-7.27;100.00
70206;BME280;57593;55.896;37.396;2023-02-28T02:03:36;99665.19;;;-7.30;100.00
70206;BME280;57593;55.896;37.396;2023-02-28T02:04:07;99661.50;;;-7.41;100.00
70206;BME280;57593;55.896;37.396;2023-02-28T02:04:42;99658.91;;;-7.34;100.00
70206;BME280;57593;55.896;37.396;2023-02-28T02:05:18;99661.41;;;-7.28;100.00
70206;BME280;57593;55.896;37.396;2023-02-28T02:05:49;99667.16;;;-7.32;100.00
70206;BME280;57593;55.896;37.396;2023-02-28T02:06:27;99666.66;;;-7.48;100.00
70206;BME280;57593;55.896;37.396;2023-02-28T02:06:59;99662.16;;;-7.59;100.00
70206;BME280;57593;55.896;37.396;2023-02-28T02:07:35;99662.75;;;-7.64;100.00
70206;BME280;57593;55.896;37.396;2023-02-28T02:08:12;99651.38;;;-7.81;100.00
70206;BME280;57593;55.896;37.396;2023-02-28T02:08:44;99650.59;;;-7.82;100.00
70206;BME280;57593;55.896;37.396;2023-02-28T02:09:14;99647.63;;;-7.85;100.00
70206;BME280;57593;55.896;37.396;2023-02-28T02:09:45;99649.59;;;-7.74;100.00
70206;BME280;57593;55.896;37.396;2023-02-28T02:10:19;99652.31;;;-7.69;100.00
70206;BME280;57593;55.896;37.396;2023-02-28T02:10:56;99650.13;;;-7.65;100.00
70206;BME280;57593;55.896;37.396;2023-02-28T02:11:27;99648.00;;;-7.75;100.00
70206;BME280;57593;55.896;37.396;2023-02-28T02:12:18;99644.06;;;-7.71;100.00
70206;BME280;57593;55.896;37.396;2023-02-28T02:15:00;99646.34;;;-7.49;100.00
70206;BME280;57593;55.896;37.396;2023-02-28T02:17:14;99650.38;;;-7.73;100.00
70206;BME280;57593;55.896;37.396;2023-02-28T02:17:52;99632.59;;;-7.68;100.00
70206;BME280;57593;55.896;37.396;2023-02-28T02:23:49;99626.66;;;-7.69;100.00
70206;BME280;57593;55.896;37.396;2023-02-28T02:34:39;99622.72;;;-7.71;100.00
70206;BME280;57593;55.896;37.396;2023-02-28T02:36:02;99623.72;;;-7.66;100.00
70206;BME280;57593;55.896;37.396;2023-02-28T02:37:48;99616.00;;;-7.66;100.00
70206;BME280;57593;55.896;37.396;2023-02-28T02:38:51;99621.72;;;-7.64;100.00
70206;BME280;57593;55.896;37.396;2023-02-28T02:40:54;99606.59;;;-7.79;100.00
70206;BME280;57593;55.896;37.396;2023-02-28T02:41:37;99604.78;;;-7.65;100.00
70206;BME280;57593;55.896;37.396;2023-02-28T02:42:25;99597.84;;;-7.64;100.00
70206;BME280;57593;55.896;37.396;2023-02-28T02:43:13;99596.88;;;-7.70;100.00
70206;BME280;57593;55.896;37.396;2023-02-28T02:44:07;99594.56;;;-7.78;100.00
70206;BME280;57593;55.896;37.396;2023-02-28T02:44:45;99591.19;;;-7.72;100.00
70206;BME280;57593;55.896;37.396;2023-02-28T02:45:25;99597.91;;;-7.78;100.00
70206;BME280;57593;55.896;37.396;2023-02-28T02:46:19;99582.31;;;-7.76;100.00
70206;BME280;57593;55.896;37.396;2023-02-28T02:46:54;99587.06;;;-7.80;100.00
70206;BME280;57593;55.896;37.396;2023-02-28T02:47:27;99580.97;;;-7.79;100.00
70206;BME280;57593;55.896;37.396;2023-02-28T02:48:01;99588.06;;;-7.87;100.00
70206;BME280;57593;55.896;37.396;2023-02-28T02:48:35;99583.31;;;-7.77;100.00
70206;BME280;57593;55.896;37.396;2023-02-28T02:49:10;99579.75;;;-7.76;100.00
70206;BME280;57593;55.896;37.396;2023-02-28T02:49:48;99588.25;;;-7.82;100.00
70206;BME280;57593;55.896;37.396;2023-02-28T02:50:31;99584.88;;;-7.76;100.00
70206;BME280;57593;55.896;37.396;2023-02-28T02:51:07;99584.66;;;-7.74;100.00
70206;BME280;57593;55.896;37.396;2023-02-28T02:51:46;99586.88;;;-7.78;100.00
70206;BME280;57593;55.896;37.396;2023-02-28T02:52:21;99585.31;;;-7.86;100.00
70206;BME280;57593;55.896;37.396;2023-02-28T02:52:57;99587.25;;;-7.81;100.00
70206;BME280;57593;55.896;37.396;2023-02-28T02:53:35;99579.53;;;-7.74;100.00
70206;BME280;57593;55.896;37.396;2023-02-28T02:54:17;99575.00;;;-7.72;100.00
70206;BME280;57593;55.896;37.396;2023-02-28T02:54:52;99576.19;;;-7.75;100.00
70206;BME280;57593;55.896;37.396;2023-02-28T02:55:25;99576.97;;;-7.74;100.00
70206;BME280;57593;55.896;37.396;2023-02-28T02:55:58;99575.41;;;-7.75;100.00
70206;BME280;57593;55.896;37.396;2023-02-28T02:56:32;99578.97;;;-7.77;100.00
70206;BME280;57593;55.896;37.396;2023-02-28T02:57:08;99580.13;;;-7.72;100.00
70206;BME280;57593;55.896;37.396;2023-02-28T02:57:46;99572.66;;;-7.74;100.00
70206;BME280;57593;55.896;37.396;2023-02-28T02:58:22;99578.56;;;-7.73;100.00
70206;BME280;57593;55.896;37.396;2023-02-28T02:58:58;99573.59;;;-7.68;100.00
70206;BME280;57593;55.896;37.396;2023-02-28T02:59:32;99562.75;;;-7.70;100.00
70206;BME280;57593;55.896;37.396;2023-02-28T03:00:06;99566.56;;;-7.80;100.00
70206;BME280;57593;55.896;37.396;2023-02-28T03:00:43;99560.25;;;-7.77;100.00
70206;BME280;57593;55.896;37.396;2023-02-28T03:01:20;99557.47;;;-7.75;100.00
70206;BME280;57593;55.896;37.396;2023-02-28T03:02:00;99564.34;;;-7.69;100.00
70206;BME280;57593;55.896;37.396;2023-02-28T03:02:32;99572.41;;;-7.66;100.00
70206;BME280;57593;55.896;37.396;2023-02-28T03:03:05;99566.72;;;-7.68;100.00
70206;BME280;57593;55.896;37.396;2023-02-28T03:03:40;99563.31;;;-7.62;100.00
70206;BME280;57593;55.896;37.396;2023-02-28T03:04:14;99570.81;;;-7.60;100.00
70206;BME280;57593;55.896;37.396;2023-02-28T03:04:53;99566.72;;;-7.68;100.00
70206;BME280;57593;55.896;37.396;2023-02-28T03:05:50;99550.75;;;-7.77;100.00
70206;BME280;57593;55.896;37.396;2023-02-28T03:06:21;99553.88;;;-7.68;100.00
70206;BME280;57593;55.896;37.396;2023-02-28T03:06:52;99566.34;;;-7.78;100.00
70206;BME280;57593;55.896;37.396;2023-02-28T03:07:26;99548.00;;;-7.75;100.00
70206;BME280;57593;55.896;37.396;2023-02-28T03:07:57;99549.38;;;-7.72;100.00
70206;BME280;57593;55.896;37.396;2023-02-28T03:08:30;99556.84;;;-7.71;100.00
70206;BME280;57593;55.896;37.396;2023-02-28T03:09:03;99555.84;;;-7.70;100.00
70206;BME280;57593;55.896;37.396;2023-02-28T03:09:35;99563.94;;;-7.66;100.00
70206;BME280;57593;55.896;37.396;2023-02-28T03:11:09;99546.41;;;-7.76;100.00
70206;BME280;57593;55.896;37.396;2023-02-28T03:11:45;99546.00;;;-7.73;100.00
70206;BME280;57593;55.896;37.396;2023-02-28T03:12:16;99548.16;;;-7.70;100.00
70206;BME280;57593;55.896;37.396;2023-02-28T03:12:55;99548.34;;;-7.71;100.00
70206;BME280;57593;55.896;37.396;2023-02-28T03:15:27;99535.09;;;-7.62;100.00
70206;BME280;57593;55.896;37.396;2023-02-28T03:17:47;99534.97;;;-7.73;100.00
70206;BME280;57593;55.896;37.396;2023-02-28T03:23:53;99534.66;;;-7.90;100.00
70206;BME280;57593;55.896;37.396;2023-02-28T03:24:48;99538.81;;;-7.96;100.00
70206;BME280;57593;55.896;37.396;2023-02-28T03:25:43;99550.44;;;-7.93;100.00
70206;BME280;57593;55.896;37.396;2023-02-28T03:26:21;99533.34;;;-8.06;100.00
70206;BME280;57593;55.896;37.396;2023-02-28T03:26:58;99536.25;;;-7.96;100.00